GJLL EGCB-EGCB
Flight info
| Callsign | GJLL |
|---|---|
| Flight time | 0h 56m |
| Altitude | 8000 |
| Route | 5329N00225W DCT 5343N00245W 5400N00305W 5415N00315W 5428N00320W 5435N00305W 5428N00250W 5415N00240W 5355N00235W |
| Aircraft | DA42/L-SBDGRY/S |
Departure
| Time | 2026-04-28 20:16 |
|---|---|
| Airport | Manchester Barton Aerodrome (EGCB) |
Arrival
| Time | 2026-04-28 21:12 |
|---|---|
| Airport | Manchester Barton Aerodrome (EGCB) |
| Time | Latitude | Longitude | Altitude | Speed | Heading |
|---|---|---|---|---|---|
| 2026-04-28 20:09 | 53.47085 | -2.38578 | 74 ft | 0 kts | 206° |
| 2026-04-28 20:13 | 53.47083 | -2.38579 | 74 ft | 0 kts | 205° |
| 2026-04-28 20:13 | 53.47079 | -2.38542 | 70 ft | 6 kts | 91° |
| 2026-04-28 20:14 | 53.47051 | -2.38470 | 74 ft | 9 kts | 133° |
| 2026-04-28 20:14 | 53.47083 | -2.38376 | 72 ft | 12 kts | 44° |
| 2026-04-28 20:14 | 53.47145 | -2.38406 | 72 ft | 11 kts | 326° |
| 2026-04-28 20:14 | 53.47188 | -2.38466 | 83 ft | 5 kts | 289° |
| 2026-04-28 20:15 | 53.47190 | -2.38497 | 82 ft | 0 kts | 262° |
| 2026-04-28 20:15 | 53.47186 | -2.38626 | 78 ft | 36 kts | 265° |
| 2026-04-28 20:15 | 53.47130 | -2.39376 | 69 ft | 88 kts | 263° |
| 2026-04-28 20:15 | 53.47049 | -2.40451 | 236 ft | 103 kts | 265° |
| 2026-04-28 20:16 | 53.46992 | -2.41646 | 552 ft | 98 kts | 273° |
| 2026-04-28 20:16 | 53.47083 | -2.42879 | 763 ft | 107 kts | 293° |
| 2026-04-28 20:16 | 53.47461 | -2.43825 | 1094 ft | 99 kts | 330° |
| 2026-04-28 20:16 | 53.48089 | -2.43989 | 1351 ft | 88 kts | 36° |
| 2026-04-28 20:17 | 53.48251 | -2.43136 | 1659 ft | 81 kts | 89° |
| 2026-04-28 20:17 | 53.48598 | -2.42481 | 1827 ft | 100 kts | 15° |
| 2026-04-28 20:17 | 53.49285 | -2.43167 | 1835 ft | 140 kts | 307° |
| 2026-04-28 20:17 | 53.49402 | -2.44817 | 2045 ft | 140 kts | 266° |
| 2026-04-28 20:18 | 53.49442 | -2.46338 | 2423 ft | 126 kts | 292° |
| 2026-04-28 20:18 | 53.49729 | -2.47138 | 2666 ft | 114 kts | 321° |
| 2026-04-28 20:18 | 53.50371 | -2.48468 | 3152 ft | 106 kts | 320° |
| 2026-04-28 20:18 | 53.50821 | -2.49398 | 3511 ft | 98 kts | 320° |
| 2026-04-28 20:19 | 53.51224 | -2.50222 | 3851 ft | 84 kts | 322° |
| 2026-04-28 20:19 | 53.51591 | -2.50953 | 4026 ft | 87 kts | 322° |
| 2026-04-28 20:19 | 53.52022 | -2.51807 | 4154 ft | 104 kts | 319° |
| 2026-04-28 20:19 | 53.52521 | -2.52808 | 4301 ft | 118 kts | 317° |
| 2026-04-28 20:20 | 53.53073 | -2.53920 | 4449 ft | 129 kts | 316° |
| 2026-04-28 20:20 | 53.53663 | -2.55110 | 4590 ft | 136 kts | 316° |
| 2026-04-28 20:20 | 53.54280 | -2.56353 | 4722 ft | 141 kts | 315° |
| 2026-04-28 20:20 | 53.54914 | -2.57632 | 4843 ft | 144 kts | 315° |
| 2026-04-28 20:21 | 53.55560 | -2.58934 | 4952 ft | 146 kts | 315° |
| 2026-04-28 20:21 | 53.56210 | -2.60244 | 5062 ft | 146 kts | 315° |
| 2026-04-28 20:21 | 53.56863 | -2.61562 | 5172 ft | 147 kts | 315° |
| 2026-04-28 20:21 | 53.57517 | -2.62880 | 5279 ft | 147 kts | 314° |
| 2026-04-28 20:22 | 53.58170 | -2.64200 | 5380 ft | 147 kts | 314° |
| 2026-04-28 20:22 | 53.58828 | -2.65529 | 5482 ft | 148 kts | 314° |
| 2026-04-28 20:22 | 53.59490 | -2.66865 | 5591 ft | 149 kts | 314° |
| 2026-04-28 20:22 | 53.60154 | -2.68207 | 5690 ft | 149 kts | 314° |
| 2026-04-28 20:23 | 53.60817 | -2.69549 | 5791 ft | 149 kts | 314° |
| 2026-04-28 20:23 | 53.61482 | -2.70896 | 5896 ft | 150 kts | 314° |
| 2026-04-28 20:23 | 53.62148 | -2.72246 | 6003 ft | 150 kts | 314° |
| 2026-04-28 20:23 | 53.62589 | -2.73139 | 6061 ft | 150 kts | 314° |
| 2026-04-28 20:24 | 53.63473 | -2.74929 | 6196 ft | 150 kts | 314° |
| 2026-04-28 20:24 | 53.64138 | -2.76279 | 6300 ft | 150 kts | 314° |
| 2026-04-28 20:24 | 53.64803 | -2.77628 | 6404 ft | 150 kts | 314° |
| 2026-04-28 20:24 | 53.65468 | -2.78978 | 6507 ft | 150 kts | 314° |
| 2026-04-28 20:25 | 53.66133 | -2.80327 | 6610 ft | 150 kts | 314° |
| 2026-04-28 20:25 | 53.66796 | -2.81676 | 6715 ft | 150 kts | 314° |
| 2026-04-28 20:25 | 53.67461 | -2.83028 | 6823 ft | 150 kts | 314° |
| 2026-04-28 20:25 | 53.68127 | -2.84385 | 6923 ft | 150 kts | 315° |
| 2026-04-28 20:26 | 53.68793 | -2.85741 | 7022 ft | 150 kts | 315° |
| 2026-04-28 20:26 | 53.69461 | -2.87102 | 7120 ft | 150 kts | 315° |
| 2026-04-28 20:26 | 53.70119 | -2.88441 | 7213 ft | 151 kts | 315° |
| 2026-04-28 20:26 | 53.70786 | -2.89803 | 7310 ft | 150 kts | 315° |
| 2026-04-28 20:27 | 53.71455 | -2.91166 | 7409 ft | 150 kts | 315° |
| 2026-04-28 20:27 | 53.72121 | -2.92527 | 7512 ft | 150 kts | 315° |
| 2026-04-28 20:27 | 53.72789 | -2.93890 | 7603 ft | 151 kts | 315° |
| 2026-04-28 20:27 | 53.73457 | -2.95257 | 7702 ft | 151 kts | 315° |
| 2026-04-28 20:28 | 53.74127 | -2.96627 | 7805 ft | 151 kts | 315° |
| 2026-04-28 20:28 | 53.74798 | -2.97999 | 7907 ft | 152 kts | 315° |
| 2026-04-28 20:28 | 53.75472 | -2.99379 | 8006 ft | 152 kts | 316° |
| 2026-04-28 20:28 | 53.76145 | -3.00758 | 8108 ft | 152 kts | 316° |
| 2026-04-28 20:29 | 53.76591 | -3.01672 | 8173 ft | 152 kts | 316° |
| 2026-04-28 20:29 | 53.77266 | -3.03055 | 8274 ft | 153 kts | 316° |
| 2026-04-28 20:29 | 53.77942 | -3.04442 | 8379 ft | 153 kts | 316° |
| 2026-04-28 20:29 | 53.78682 | -3.05697 | 8431 ft | 148 kts | 340° |
| 2026-04-28 20:30 | 53.79897 | -3.05503 | 8442 ft | 134 kts | 37° |
| 2026-04-28 20:30 | 53.80375 | -3.04830 | 8446 ft | 131 kts | 53° |
| 2026-04-28 20:30 | 53.80737 | -3.03459 | 8552 ft | 123 kts | 81° |
| 2026-04-28 20:30 | 53.80663 | -3.02098 | 8847 ft | 113 kts | 105° |
| 2026-04-28 20:31 | 53.80250 | -3.01022 | 9134 ft | 111 kts | 128° |
| 2026-04-28 20:31 | 53.79686 | -3.00177 | 9431 ft | 105 kts | 128° |
| 2026-04-28 20:31 | 53.79161 | -2.99350 | 9729 ft | 101 kts | 127° |
| 2026-04-28 20:31 | 53.78661 | -2.98553 | 10032 ft | 97 kts | 126° |
| 2026-04-28 20:32 | 53.78137 | -2.97853 | 10344 ft | 100 kts | 143° |
| 2026-04-28 20:32 | 53.77368 | -2.97689 | 10324 ft | 137 kts | 176° |
| 2026-04-28 20:32 | 53.76281 | -2.98107 | 9854 ft | 176 kts | 188° |
| 2026-04-28 20:32 | 53.75050 | -2.98657 | 9381 ft | 188 kts | 188° |
| 2026-04-28 20:33 | 53.73764 | -2.99202 | 8904 ft | 192 kts | 188° |
| 2026-04-28 20:33 | 53.72520 | -2.99719 | 8393 ft | 173 kts | 187° |
| 2026-04-28 20:33 | 53.71398 | -3.00178 | 7891 ft | 160 kts | 187° |
| 2026-04-28 20:33 | 53.70336 | -3.00607 | 7390 ft | 154 kts | 187° |
| 2026-04-28 20:34 | 53.69305 | -3.01024 | 6898 ft | 151 kts | 187° |
| 2026-04-28 20:34 | 53.68239 | -3.01308 | 5882 ft | 162 kts | 177° |
| 2026-04-28 20:34 | 53.67071 | -3.01259 | 4784 ft | 168 kts | 173° |
| 2026-04-28 20:34 | 53.65897 | -3.01277 | 3721 ft | 166 kts | 176° |
| 2026-04-28 20:35 | 53.64758 | -3.01250 | 2993 ft | 157 kts | 176° |
| 2026-04-28 20:35 | 53.63701 | -3.01485 | 2339 ft | 152 kts | 185° |
| 2026-04-28 20:35 | 53.62713 | -3.01911 | 1905 ft | 141 kts | 188° |
| 2026-04-28 20:35 | 53.61804 | -3.02448 | 1433 ft | 139 kts | 192° |
| 2026-04-28 20:36 | 53.60952 | -3.03108 | 1105 ft | 130 kts | 199° |
| 2026-04-28 20:36 | 53.60127 | -3.03839 | 698 ft | 134 kts | 204° |
| 2026-04-28 20:36 | 53.59343 | -3.04585 | 384 ft | 119 kts | 207° |
| 2026-04-28 20:36 | 53.58626 | -3.05292 | 41 ft | 118 kts | 210° |
| 2026-04-28 20:37 | 53.57905 | -3.06005 | 73 ft | 127 kts | 211° |
| 2026-04-28 20:37 | 53.57197 | -3.06914 | 259 ft | 130 kts | 222° |
| 2026-04-28 20:37 | 53.56385 | -3.07420 | 359 ft | 124 kts | 166° |
| 2026-04-28 20:37 | 53.55786 | -3.06639 | 602 ft | 107 kts | 121° |
| 2026-04-28 20:38 | 53.55439 | -3.05587 | 841 ft | 100 kts | 101° |
| 2026-04-28 20:38 | 53.55330 | -3.04457 | 1108 ft | 96 kts | 96° |
| 2026-04-28 20:38 | 53.55209 | -3.03378 | 1364 ft | 92 kts | 98° |
| 2026-04-28 20:38 | 53.55074 | -3.02335 | 1619 ft | 91 kts | 99° |
| 2026-04-28 20:39 | 53.54932 | -3.01312 | 1877 ft | 89 kts | 99° |
| 2026-04-28 20:39 | 53.54786 | -3.00296 | 2140 ft | 89 kts | 100° |
| 2026-04-28 20:39 | 53.54638 | -2.99297 | 2426 ft | 86 kts | 101° |
| 2026-04-28 20:39 | 53.54493 | -2.98328 | 2700 ft | 85 kts | 101° |
| 2026-04-28 20:40 | 53.54348 | -2.97365 | 2964 ft | 85 kts | 101° |
| 2026-04-28 20:40 | 53.54201 | -2.96401 | 3218 ft | 85 kts | 102° |
| 2026-04-28 20:40 | 53.54054 | -2.95431 | 3485 ft | 86 kts | 101° |
| 2026-04-28 20:40 | 53.53905 | -2.94456 | 3744 ft | 87 kts | 101° |
| 2026-04-28 20:41 | 53.53754 | -2.93470 | 4004 ft | 87 kts | 101° |
| 2026-04-28 20:41 | 53.53602 | -2.92476 | 4256 ft | 88 kts | 101° |
| 2026-04-28 20:41 | 53.53449 | -2.91472 | 4506 ft | 89 kts | 101° |
| 2026-04-28 20:41 | 53.53293 | -2.90458 | 4760 ft | 90 kts | 101° |
| 2026-04-28 20:42 | 53.53138 | -2.89448 | 5010 ft | 91 kts | 101° |
| 2026-04-28 20:42 | 53.52979 | -2.88418 | 5268 ft | 91 kts | 101° |
| 2026-04-28 20:42 | 53.52820 | -2.87379 | 5520 ft | 92 kts | 101° |
| 2026-04-28 20:42 | 53.52660 | -2.86335 | 5779 ft | 92 kts | 101° |
| 2026-04-28 20:43 | 53.52499 | -2.85292 | 6021 ft | 92 kts | 101° |
| 2026-04-28 20:43 | 53.52338 | -2.84245 | 6277 ft | 93 kts | 101° |
| 2026-04-28 20:43 | 53.52177 | -2.83199 | 6530 ft | 93 kts | 101° |
| 2026-04-28 20:43 | 53.52014 | -2.82146 | 6790 ft | 93 kts | 101° |
| 2026-04-28 20:44 | 53.51851 | -2.81085 | 7035 ft | 94 kts | 101° |
| 2026-04-28 20:44 | 53.51689 | -2.80042 | 7271 ft | 93 kts | 101° |
| 2026-04-28 20:44 | 53.51526 | -2.78987 | 7512 ft | 93 kts | 101° |
| 2026-04-28 20:44 | 53.51363 | -2.77928 | 7761 ft | 94 kts | 101° |
| 2026-04-28 20:45 | 53.51199 | -2.76871 | 8011 ft | 93 kts | 100° |
| 2026-04-28 20:45 | 53.51036 | -2.75817 | 8266 ft | 93 kts | 100° |
| 2026-04-28 20:45 | 53.50871 | -2.74741 | 8428 ft | 102 kts | 100° |
| 2026-04-28 20:45 | 53.50680 | -2.73492 | 8443 ft | 118 kts | 101° |
| 2026-04-28 20:46 | 53.50464 | -2.72103 | 8444 ft | 127 kts | 101° |
| 2026-04-28 20:46 | 53.50236 | -2.70639 | 8444 ft | 131 kts | 101° |
| 2026-04-28 20:46 | 53.50003 | -2.69147 | 8440 ft | 133 kts | 101° |
| 2026-04-28 20:46 | 53.49767 | -2.67634 | 8441 ft | 134 kts | 101° |
| 2026-04-28 20:47 | 53.49530 | -2.66114 | 8441 ft | 135 kts | 101° |
| 2026-04-28 20:47 | 53.49292 | -2.64592 | 8436 ft | 135 kts | 102° |
| 2026-04-28 20:47 | 53.49058 | -2.63092 | 8438 ft | 134 kts | 102° |
| 2026-04-28 20:47 | 53.48818 | -2.61555 | 8438 ft | 134 kts | 102° |
| 2026-04-28 20:48 | 53.48584 | -2.60059 | 8440 ft | 134 kts | 102° |
| 2026-04-28 20:48 | 53.48347 | -2.58541 | 8440 ft | 134 kts | 102° |
| 2026-04-28 20:48 | 53.48110 | -2.57023 | 8440 ft | 134 kts | 102° |
| 2026-04-28 20:48 | 53.47871 | -2.55505 | 8439 ft | 134 kts | 102° |
| 2026-04-28 20:49 | 53.47633 | -2.53986 | 8439 ft | 134 kts | 102° |
| 2026-04-28 20:49 | 53.47395 | -2.52470 | 8437 ft | 135 kts | 102° |
| 2026-04-28 20:49 | 53.47156 | -2.50949 | 8439 ft | 134 kts | 102° |
| 2026-04-28 20:49 | 53.46917 | -2.49432 | 8440 ft | 134 kts | 102° |
| 2026-04-28 20:50 | 53.46584 | -2.47965 | 8435 ft | 137 kts | 117° |
| 2026-04-28 20:50 | 53.45943 | -2.46757 | 8433 ft | 142 kts | 135° |
| 2026-04-28 20:50 | 53.45082 | -2.45911 | 8433 ft | 144 kts | 145° |
| 2026-04-28 20:50 | 53.44206 | -2.45096 | 8434 ft | 144 kts | 144° |
| 2026-04-28 20:51 | 53.43332 | -2.44278 | 8435 ft | 144 kts | 144° |
| 2026-04-28 20:51 | 53.42468 | -2.43473 | 8436 ft | 144 kts | 144° |
| 2026-04-28 20:51 | 53.41592 | -2.42657 | 8438 ft | 144 kts | 144° |
| 2026-04-28 20:51 | 53.41000 | -2.42107 | 8437 ft | 144 kts | 144° |
| 2026-04-28 20:52 | 53.39839 | -2.41028 | 8436 ft | 144 kts | 144° |
| 2026-04-28 20:52 | 53.38960 | -2.40212 | 8434 ft | 144 kts | 144° |
| 2026-04-28 20:52 | 53.38086 | -2.39400 | 8436 ft | 144 kts | 144° |
| 2026-04-28 20:52 | 53.37211 | -2.38587 | 8436 ft | 144 kts | 144° |
| 2026-04-28 20:53 | 53.35574 | -2.37069 | 8435 ft | 144 kts | 144° |
| 2026-04-28 20:53 | 53.34696 | -2.36256 | 8434 ft | 144 kts | 144° |
| 2026-04-28 20:53 | 53.33820 | -2.35443 | 8435 ft | 144 kts | 144° |
| 2026-04-28 20:54 | 53.32946 | -2.34634 | 8435 ft | 144 kts | 144° |
| 2026-04-28 20:54 | 53.32072 | -2.33826 | 8434 ft | 143 kts | 144° |
| 2026-04-28 20:54 | 53.31211 | -2.33028 | 8434 ft | 143 kts | 144° |
| 2026-04-28 20:54 | 53.30430 | -2.32022 | 8432 ft | 138 kts | 125° |
| 2026-04-28 20:55 | 53.29946 | -2.30677 | 8431 ft | 134 kts | 108° |
| 2026-04-28 20:55 | 53.29768 | -2.29186 | 8430 ft | 132 kts | 91° |
| 2026-04-28 20:55 | 53.29898 | -2.27673 | 8429 ft | 132 kts | 73° |
| 2026-04-28 20:55 | 53.30328 | -2.26310 | 8433 ft | 135 kts | 56° |
| 2026-04-28 20:56 | 53.31030 | -2.25250 | 8428 ft | 139 kts | 38° |
| 2026-04-28 20:56 | 53.31942 | -2.24646 | 8427 ft | 144 kts | 20° |
| 2026-04-28 20:56 | 53.32920 | -2.24258 | 8429 ft | 144 kts | 21° |
| 2026-04-28 20:56 | 53.33894 | -2.23850 | 8426 ft | 144 kts | 21° |
| 2026-04-28 20:57 | 53.34869 | -2.23446 | 8427 ft | 144 kts | 21° |
| 2026-04-28 20:57 | 53.35846 | -2.23042 | 8430 ft | 144 kts | 21° |
| 2026-04-28 20:57 | 53.36820 | -2.22639 | 8427 ft | 144 kts | 21° |
| 2026-04-28 20:57 | 53.37794 | -2.22236 | 8428 ft | 144 kts | 21° |
| 2026-04-28 20:58 | 53.38769 | -2.21833 | 8426 ft | 144 kts | 21° |
| 2026-04-28 20:58 | 53.39746 | -2.21428 | 8427 ft | 145 kts | 21° |
| 2026-04-28 20:58 | 53.40722 | -2.21024 | 8426 ft | 144 kts | 21° |
| 2026-04-28 20:58 | 53.41695 | -2.20620 | 8426 ft | 144 kts | 21° |
| 2026-04-28 20:59 | 53.42666 | -2.20217 | 8423 ft | 144 kts | 21° |
| 2026-04-28 20:59 | 53.43639 | -2.19814 | 8425 ft | 144 kts | 21° |
| 2026-04-28 20:59 | 53.44615 | -2.19409 | 8426 ft | 144 kts | 21° |
| 2026-04-28 20:59 | 53.45575 | -2.19010 | 8426 ft | 144 kts | 21° |
| 2026-04-28 21:00 | 53.46586 | -2.18857 | 8421 ft | 151 kts | 1° |
| 2026-04-28 21:00 | 53.47626 | -2.19404 | 8266 ft | 167 kts | 338° |
| 2026-04-28 21:00 | 53.48526 | -2.20769 | 7992 ft | 183 kts | 309° |
| 2026-04-28 21:00 | 53.48997 | -2.22785 | 7671 ft | 191 kts | 280° |
| 2026-04-28 21:01 | 53.48887 | -2.24973 | 7172 ft | 180 kts | 256° |
| 2026-04-28 21:01 | 53.48639 | -2.26813 | 6699 ft | 142 kts | 256° |
| 2026-04-28 21:01 | 53.48447 | -2.28349 | 6168 ft | 130 kts | 257° |
| 2026-04-28 21:01 | 53.48266 | -2.29806 | 5653 ft | 126 kts | 257° |
| 2026-04-28 21:02 | 53.48091 | -2.31236 | 5149 ft | 124 kts | 256° |
| 2026-04-28 21:02 | 53.47915 | -2.32660 | 4634 ft | 125 kts | 257° |
| 2026-04-28 21:02 | 53.47737 | -2.34095 | 4125 ft | 126 kts | 256° |
| 2026-04-28 21:02 | 53.47558 | -2.35543 | 3623 ft | 127 kts | 257° |
| 2026-04-28 21:03 | 53.47377 | -2.37002 | 3114 ft | 128 kts | 257° |
| 2026-04-28 21:03 | 53.47196 | -2.38465 | 2601 ft | 128 kts | 258° |
| 2026-04-28 21:03 | 53.47288 | -2.39895 | 2073 ft | 120 kts | 309° |
| 2026-04-28 21:03 | 53.47862 | -2.40800 | 1533 ft | 116 kts | 346° |
| 2026-04-28 21:04 | 53.48579 | -2.40941 | 1411 ft | 90 kts | 22° |
| 2026-04-28 21:04 | 53.49074 | -2.40591 | 1346 ft | 68 kts | 45° |
| 2026-04-28 21:04 | 53.49368 | -2.40086 | 1252 ft | 56 kts | 60° |
| 2026-04-28 21:04 | 53.49535 | -2.39482 | 1133 ft | 58 kts | 74° |
| 2026-04-28 21:05 | 53.49618 | -2.38834 | 1079 ft | 56 kts | 75° |
| 2026-04-28 21:05 | 53.49700 | -2.38185 | 1044 ft | 60 kts | 76° |
| 2026-04-28 21:05 | 53.49798 | -2.37441 | 1046 ft | 69 kts | 76° |
| 2026-04-28 21:05 | 53.49903 | -2.36608 | 1043 ft | 76 kts | 77° |
| 2026-04-28 21:06 | 53.50015 | -2.35724 | 1042 ft | 79 kts | 77° |
| 2026-04-28 21:06 | 53.50126 | -2.34830 | 1038 ft | 78 kts | 77° |
| 2026-04-28 21:06 | 53.50067 | -2.33929 | 1038 ft | 81 kts | 105° |
| 2026-04-28 21:06 | 53.49879 | -2.33038 | 1037 ft | 81 kts | 102° |
| 2026-04-28 21:07 | 53.49700 | -2.32139 | 1041 ft | 82 kts | 102° |
| 2026-04-28 21:07 | 53.49518 | -2.31216 | 1038 ft | 85 kts | 104° |
| 2026-04-28 21:07 | 53.49144 | -2.30405 | 1039 ft | 95 kts | 140° |
| 2026-04-28 21:07 | 53.48476 | -2.30116 | 1036 ft | 102 kts | 159° |
| 2026-04-28 21:08 | 53.48059 | -2.29368 | 1038 ft | 88 kts | 102° |
| 2026-04-28 21:08 | 53.47567 | -2.28731 | 1034 ft | 106 kts | 173° |
| 2026-04-28 21:08 | 53.46975 | -2.29450 | 1028 ft | 114 kts | 252° |
| 2026-04-28 21:08 | 53.47065 | -2.30700 | 1032 ft | 106 kts | 303° |
| 2026-04-28 21:09 | 53.47562 | -2.31514 | 1016 ft | 98 kts | 345° |
| 2026-04-28 21:09 | 53.48208 | -2.31634 | 966 ft | 92 kts | 19° |
| 2026-04-28 21:09 | 53.48748 | -2.31125 | 928 ft | 90 kts | 47° |
| 2026-04-28 21:09 | 53.49028 | -2.30207 | 886 ft | 91 kts | 79° |
| 2026-04-28 21:10 | 53.48950 | -2.29213 | 960 ft | 87 kts | 112° |
| 2026-04-28 21:10 | 53.48439 | -2.28708 | 1022 ft | 93 kts | 173° |
| 2026-04-28 21:10 | 53.47905 | -2.29286 | 1079 ft | 99 kts | 247° |
| 2026-04-28 21:10 | 53.47807 | -2.30410 | 1120 ft | 100 kts | 266° |
| 2026-04-28 21:11 | 53.47698 | -2.31662 | 1012 ft | 113 kts | 264° |
| 2026-04-28 21:11 | 53.47593 | -2.33006 | 897 ft | 119 kts | 264° |
| 2026-04-28 21:11 | 53.47489 | -2.34378 | 762 ft | 116 kts | 266° |
| 2026-04-28 21:11 | 53.47392 | -2.35728 | 625 ft | 117 kts | 266° |
| 2026-04-28 21:12 | 53.47297 | -2.37060 | 511 ft | 113 kts | 266° |
| 2026-04-28 21:12 | 53.47207 | -2.38391 | 193 ft | 119 kts | 266° |
| 2026-04-28 21:12 | 53.47119 | -2.39564 | 69 ft | 78 kts | 265° |
| 2026-04-28 21:12 | 53.47077 | -2.39940 | 69 ft | 0 kts | 207° |
| 2026-04-28 21:13 | 53.47069 | -2.39895 | 68 ft | 15 kts | 92° |
| 2026-04-28 21:13 | 53.47094 | -2.39657 | 66 ft | 19 kts | 52° |
| 2026-04-28 21:13 | 53.47121 | -2.39397 | 65 ft | 26 kts | 78° |
| 2026-04-28 21:13 | 53.47135 | -2.39094 | 66 ft | 22 kts | 85° |
| 2026-04-28 21:14 | 53.47158 | -2.38897 | 65 ft | 14 kts | 78° |
| 2026-04-28 21:14 | 53.47180 | -2.38719 | 63 ft | 17 kts | 78° |
| 2026-04-28 21:14 | 53.47187 | -2.38530 | 77 ft | 16 kts | 75° |
| 2026-04-28 21:14 | 53.47116 | -2.38369 | 71 ft | 25 kts | 155° |
| 2026-04-28 21:15 | 53.47050 | -2.38501 | 73 ft | 7 kts | 313° |
| 2026-04-28 21:15 | 53.47086 | -2.38551 | 73 ft | 4 kts | 290° |
| 2026-04-28 21:15 | 53.47084 | -2.38572 | 73 ft | 2 kts | 227° |
| 2026-04-28 21:15 | 53.47083 | -2.38573 | 73 ft | 0 kts | 216° |